createdAt,value
2018-06-22T00:00:04.004Z,0.00
2018-06-22T00:01:03.879Z,0.00
2018-06-22T00:02:03.760Z,0.00
2018-06-22T00:03:03.640Z,0.00
2018-06-22T00:04:03.518Z,0.00
2018-06-22T00:05:03.398Z,0.00
2018-06-22T00:06:03.279Z,0.00
2018-06-22T00:07:03.154Z,0.00
2018-06-22T00:08:03.033Z,0.00
2018-06-22T00:09:02.912Z,0.00
2018-06-22T00:10:02.792Z,0.00
2018-06-22T00:11:02.670Z,0.00
2018-06-22T00:12:02.549Z,0.00
2018-06-22T00:13:02.428Z,0.00
2018-06-22T00:14:02.309Z,0.00
2018-06-22T00:15:02.186Z,0.00
2018-06-22T00:16:02.066Z,0.00
2018-06-22T00:17:01.946Z,0.00
2018-06-22T00:18:01.822Z,0.00
2018-06-22T00:19:01.699Z,0.00
2018-06-22T00:20:01.586Z,0.00
2018-06-22T00:21:01.458Z,0.00
2018-06-22T00:22:01.338Z,0.00
2018-06-22T00:23:01.219Z,0.00
2018-06-22T00:24:01.100Z,0.00
2018-06-22T00:25:00.975Z,0.00
2018-06-22T00:26:00.856Z,0.00
2018-06-22T00:27:00.734Z,0.00
2018-06-22T00:28:00.613Z,0.00
2018-06-22T00:29:00.492Z,0.00
2018-06-22T00:30:00.373Z,0.00
2018-06-22T00:31:00.249Z,0.00
2018-06-22T00:32:00.127Z,0.00
2018-06-22T00:33:00.009Z,0.00
2018-06-22T00:33:59.887Z,0.00
2018-06-22T00:34:59.765Z,0.00
2018-06-22T00:35:59.644Z,0.00
2018-06-22T00:36:59.523Z,0.00
2018-06-22T00:37:59.400Z,0.00
2018-06-22T00:38:59.277Z,0.00
2018-06-22T00:39:59.156Z,0.00
2018-06-22T00:40:59.036Z,0.00
2018-06-22T00:41:58.917Z,0.00
2018-06-22T00:42:58.794Z,0.00
2018-06-22T00:43:58.673Z,0.00
2018-06-22T00:44:58.554Z,0.00
2018-06-22T00:45:58.432Z,0.00
2018-06-22T00:46:58.310Z,0.00
2018-06-22T00:47:58.189Z,0.00
2018-06-22T00:48:58.066Z,0.00
2018-06-22T00:49:57.946Z,0.00
2018-06-22T00:50:57.825Z,0.00
2018-06-22T00:51:57.707Z,0.00
2018-06-22T00:52:57.584Z,0.00
2018-06-22T00:53:57.464Z,0.00
2018-06-22T00:54:57.340Z,0.00
2018-06-22T00:55:57.221Z,0.00
2018-06-22T00:56:57.095Z,0.00
2018-06-22T00:57:56.975Z,0.00
2018-06-22T00:58:56.854Z,0.00
2018-06-22T00:59:56.738Z,0.00
2018-06-22T01:00:56.608Z,0.00
2018-06-22T01:01:56.492Z,0.00
2018-06-22T01:02:56.367Z,0.00
2018-06-22T01:03:56.244Z,0.00
2018-06-22T01:04:56.126Z,0.00
2018-06-22T01:05:56.003Z,0.00
2018-06-22T01:06:55.881Z,0.00
2018-06-22T01:07:55.757Z,0.00
2018-06-22T01:08:55.637Z,0.00
2018-06-22T01:09:55.514Z,0.00
2018-06-22T01:10:55.397Z,0.00
2018-06-22T01:11:55.272Z,0.00
2018-06-22T01:12:55.151Z,0.00
2018-06-22T01:13:55.029Z,0.00
2018-06-22T01:14:54.905Z,0.00
2018-06-22T01:15:54.782Z,0.00
2018-06-22T01:16:54.661Z,0.00
2018-06-22T01:17:54.539Z,0.00
2018-06-22T01:18:54.418Z,0.00
2018-06-22T01:19:54.298Z,0.00
2018-06-22T01:20:54.183Z,0.00
2018-06-22T01:21:54.053Z,0.00
2018-06-22T01:22:53.928Z,0.00
2018-06-22T01:23:53.809Z,0.00
2018-06-22T01:24:53.685Z,0.00
2018-06-22T01:25:53.563Z,0.00
2018-06-22T01:26:53.442Z,0.00
2018-06-22T01:27:53.319Z,0.00
2018-06-22T01:28:53.197Z,0.00
2018-06-22T01:29:53.075Z,0.00
2018-06-22T01:30:52.951Z,0.00
2018-06-22T01:31:52.831Z,0.00
2018-06-22T01:32:52.708Z,0.00
2018-06-22T01:33:52.590Z,0.00
2018-06-22T01:34:52.463Z,0.00
2018-06-22T01:35:52.343Z,0.00
2018-06-22T01:36:52.220Z,0.00
2018-06-22T01:37:52.100Z,0.00
2018-06-22T01:38:51.986Z,0.00
2018-06-22T01:39:51.856Z,0.00
2018-06-22T01:40:51.735Z,0.00
2018-06-22T01:41:51.610Z,0.00
2018-06-22T01:42:51.492Z,0.00
2018-06-22T01:43:51.366Z,0.00
2018-06-22T01:44:51.243Z,0.00
2018-06-22T01:45:51.120Z,0.00
2018-06-22T01:46:50.998Z,0.00
2018-06-22T01:47:50.876Z,0.00
2018-06-22T01:48:50.756Z,0.00
2018-06-22T01:49:50.631Z,0.00
2018-06-22T01:50:50.512Z,0.00
2018-06-22T01:51:50.386Z,0.00
2018-06-22T01:52:50.263Z,0.00
2018-06-22T01:53:50.141Z,0.00
2018-06-22T01:54:50.021Z,0.00
2018-06-22T01:55:49.897Z,0.00
2018-06-22T01:56:49.774Z,0.00
2018-06-22T01:57:49.651Z,0.00
2018-06-22T01:58:49.528Z,0.00
2018-06-22T01:59:49.409Z,0.00
2018-06-22T02:00:49.286Z,0.00
2018-06-22T02:01:49.162Z,0.00
2018-06-22T02:02:49.042Z,0.00
2018-06-22T02:03:48.916Z,0.00
2018-06-22T02:04:48.798Z,0.00
2018-06-22T02:05:48.735Z,0.00
2018-06-22T02:06:48.552Z,0.00
2018-06-22T02:07:48.428Z,0.00
2018-06-22T02:08:48.331Z,0.00
2018-06-22T02:09:48.183Z,0.00
2018-06-22T02:10:48.063Z,0.00
2018-06-22T02:11:47.940Z,0.00
2018-06-22T02:12:47.816Z,0.00
2018-06-22T02:13:47.692Z,0.00
2018-06-22T02:14:47.569Z,0.00
2018-06-22T02:15:47.447Z,0.00
2018-06-22T02:16:47.329Z,0.00
2018-06-22T02:17:47.202Z,0.00
2018-06-22T02:18:47.079Z,0.00
2018-06-22T02:19:46.959Z,0.00
2018-06-22T02:20:46.839Z,0.00
2018-06-22T02:21:46.718Z,0.00
2018-06-22T02:22:46.591Z,0.00
2018-06-22T02:23:46.469Z,0.00
2018-06-22T02:24:46.347Z,0.00
2018-06-22T02:25:46.226Z,0.00
2018-06-22T02:26:46.106Z,0.00
2018-06-22T02:27:45.977Z,0.00
2018-06-22T02:28:45.855Z,0.00
2018-06-22T02:29:45.736Z,0.00
2018-06-22T02:30:45.611Z,0.00
2018-06-22T02:31:45.489Z,0.00
2018-06-22T02:32:45.375Z,0.00
2018-06-22T02:33:45.249Z,0.00
2018-06-22T02:34:45.122Z,0.00
2018-06-22T02:35:44.997Z,0.00
2018-06-22T02:36:44.877Z,0.00
2018-06-22T02:37:44.756Z,0.00
2018-06-22T02:38:44.630Z,0.00
2018-06-22T02:39:44.507Z,0.00
2018-06-22T02:40:44.393Z,0.00
2018-06-22T02:41:44.263Z,0.00
2018-06-22T02:42:44.141Z,0.00
2018-06-22T02:43:44.019Z,0.00
2018-06-22T02:44:43.895Z,0.00
2018-06-22T02:45:43.774Z,0.00
2018-06-22T02:46:43.651Z,0.00
2018-06-22T02:47:43.526Z,0.00
2018-06-22T02:48:43.405Z,0.00
2018-06-22T02:49:43.284Z,0.00
2018-06-22T02:50:43.161Z,0.00
2018-06-22T02:51:43.036Z,0.00
2018-06-22T02:52:42.912Z,0.00
2018-06-22T02:53:42.790Z,0.00
2018-06-22T02:54:42.668Z,0.00
2018-06-22T02:55:42.551Z,0.00
2018-06-22T02:56:42.422Z,0.00
2018-06-22T02:57:42.303Z,0.00
2018-06-22T02:58:42.180Z,0.00
2018-06-22T02:59:42.068Z,0.00
2018-06-22T03:00:41.935Z,0.00
2018-06-22T03:01:41.806Z,0.00
2018-06-22T03:02:41.688Z,0.00
2018-06-22T03:03:41.563Z,0.00
2018-06-22T03:04:41.439Z,0.00
2018-06-22T03:05:41.318Z,0.00
2018-06-22T03:06:41.195Z,0.00
2018-06-22T03:07:41.071Z,0.00
2018-06-22T03:08:40.948Z,0.00
2018-06-22T03:09:40.824Z,0.00
2018-06-22T03:10:40.702Z,0.00
2018-06-22T03:11:40.579Z,0.00
2018-06-22T03:12:40.456Z,0.00
2018-06-22T03:13:40.332Z,0.00
2018-06-22T03:14:40.211Z,4.00
2018-06-22T03:15:40.092Z,0.00
2018-06-22T03:16:39.966Z,0.00
2018-06-22T03:17:39.844Z,0.00
2018-06-22T03:18:39.718Z,0.00
2018-06-22T03:19:39.593Z,0.00
2018-06-22T03:20:39.472Z,4.00
2018-06-22T03:21:39.348Z,4.00
2018-06-22T03:22:39.225Z,4.00
2018-06-22T03:23:39.103Z,8.00
2018-06-22T03:24:38.980Z,4.00
2018-06-22T03:25:38.856Z,8.00
2018-06-22T03:26:38.733Z,8.00
2018-06-22T03:27:38.611Z,4.00
2018-06-22T03:28:38.487Z,4.00
2018-06-22T03:29:38.365Z,8.00
2018-06-22T03:30:38.263Z,8.00
2018-06-22T03:31:38.116Z,8.00
2018-06-22T03:32:37.992Z,4.00
2018-06-22T03:33:37.872Z,8.00
2018-06-22T03:34:37.748Z,8.00
2018-06-22T03:35:37.627Z,12.00
2018-06-22T03:36:37.501Z,12.00
2018-06-22T03:37:37.379Z,12.00
2018-06-22T03:38:37.253Z,12.00
2018-06-22T03:39:37.218Z,16.00
2018-06-22T03:40:37.009Z,16.00
2018-06-22T03:41:36.886Z,20.00
2018-06-22T03:42:36.767Z,16.00
2018-06-22T03:43:36.641Z,16.00
2018-06-22T03:44:36.519Z,20.00
2018-06-22T03:45:36.392Z,20.00
2018-06-22T03:46:36.267Z,24.00
2018-06-22T03:47:36.150Z,28.00
2018-06-22T03:48:36.022Z,36.00
2018-06-22T03:49:35.900Z,44.00
2018-06-22T03:50:35.775Z,40.00
2018-06-22T03:51:35.650Z,32.00
2018-06-22T03:52:35.527Z,24.00
2018-06-22T03:53:35.408Z,28.00
2018-06-22T03:54:35.278Z,20.00
2018-06-22T03:55:35.165Z,20.00
2018-06-22T03:56:35.034Z,24.00
2018-06-22T03:57:34.915Z,20.00
2018-06-22T03:58:34.783Z,20.00
2018-06-22T03:59:34.659Z,20.00
2018-06-22T04:00:34.537Z,28.00
2018-06-22T04:01:34.421Z,36.00
2018-06-22T04:02:34.290Z,44.00
2018-06-22T04:03:34.164Z,48.00
2018-06-22T04:04:34.044Z,48.00
2018-06-22T04:05:33.920Z,52.00
2018-06-22T04:06:33.795Z,56.00
2018-06-22T04:07:33.674Z,64.00
2018-06-22T04:08:33.549Z,72.00
2018-06-22T04:09:33.424Z,80.00
2018-06-22T04:10:33.300Z,64.00
2018-06-22T04:11:33.174Z,68.00
2018-06-22T04:12:33.055Z,52.00
2018-06-22T04:13:32.931Z,52.00
2018-06-22T04:14:32.806Z,52.00
2018-06-22T04:15:32.682Z,56.00
2018-06-22T04:16:32.564Z,48.00
2018-06-22T04:17:32.438Z,48.00
2018-06-22T04:18:32.309Z,52.00
2018-06-22T04:19:32.187Z,60.00
2018-06-22T04:20:32.061Z,92.00
2018-06-22T04:21:32.027Z,140.00
2018-06-22T04:22:31.859Z,172.00
2018-06-22T04:23:31.693Z,216.00
2018-06-22T04:24:31.666Z,240.00
2018-06-22T04:25:31.444Z,232.00
2018-06-22T04:26:31.322Z,228.00
2018-06-22T04:27:31.196Z,204.00
2018-06-22T04:28:31.077Z,188.00
2018-06-22T04:29:30.951Z,188.00
2018-06-22T04:30:30.825Z,168.00
2018-06-22T04:31:30.702Z,152.00
2018-06-22T04:32:30.581Z,140.00
2018-06-22T04:33:30.456Z,128.00
2018-06-22T04:34:30.330Z,124.00
2018-06-22T04:35:30.212Z,92.00
2018-06-22T04:36:30.081Z,80.00
2018-06-22T04:37:29.957Z,80.00
2018-06-22T04:38:29.833Z,84.00
2018-06-22T04:39:29.709Z,100.00
2018-06-22T04:40:29.588Z,108.00
2018-06-22T04:41:29.462Z,108.00
2018-06-22T04:42:29.338Z,120.00
2018-06-22T04:43:29.214Z,128.00
2018-06-22T04:44:29.088Z,112.00
2018-06-22T04:45:28.968Z,96.00
2018-06-22T04:46:28.840Z,92.00
2018-06-22T04:47:28.720Z,100.00
2018-06-22T04:48:28.601Z,120.00
2018-06-22T04:49:28.470Z,156.00
2018-06-22T04:50:28.353Z,196.00
2018-06-22T04:51:28.228Z,224.00
2018-06-22T04:52:28.099Z,244.00
2018-06-22T04:53:27.976Z,260.00
2018-06-22T04:54:27.852Z,264.00
2018-06-22T04:55:27.727Z,252.00
2018-06-22T04:56:27.606Z,220.00
2018-06-22T04:57:27.480Z,212.00
2018-06-22T04:58:27.358Z,272.00
2018-06-22T04:59:27.235Z,340.00
2018-06-22T05:00:27.171Z,304.00
2018-06-22T05:01:26.984Z,364.00
2018-06-22T05:02:26.862Z,484.00
2018-06-22T05:03:26.737Z,508.00
2018-06-22T05:04:26.613Z,492.00
2018-06-22T05:05:26.491Z,436.00
2018-06-22T05:06:26.366Z,376.00
2018-06-22T05:07:26.240Z,320.00
2018-06-22T05:08:26.118Z,320.00
2018-06-22T05:09:26.098Z,344.00
2018-06-22T05:10:25.869Z,328.00
2018-06-22T05:11:25.748Z,232.00
2018-06-22T05:12:25.623Z,184.00
2018-06-22T05:13:25.496Z,208.00
2018-06-22T05:14:25.376Z,184.00
2018-06-22T05:15:25.251Z,168.00
2018-06-22T05:16:25.140Z,172.00
2018-06-22T05:17:25.004Z,172.00
2018-06-22T05:18:25.757Z,152.00
2018-06-22T05:19:24.754Z,148.00
2018-06-22T05:20:24.666Z,160.00
2018-06-22T05:21:24.508Z,184.00
2018-06-22T05:22:24.383Z,220.00
2018-06-22T05:23:24.258Z,284.00
2018-06-22T05:24:24.137Z,368.00
2018-06-22T05:25:24.012Z,452.00
2018-06-22T05:26:23.887Z,460.00
2018-06-22T05:27:23.762Z,412.00
2018-06-22T05:28:23.637Z,404.00
2018-06-22T05:29:23.528Z,440.00
2018-06-22T05:30:23.408Z,480.00
2018-06-22T05:31:23.268Z,468.00
2018-06-22T05:32:23.141Z,456.00
2018-06-22T05:33:23.018Z,504.00
2018-06-22T05:34:22.890Z,592.00
2018-06-22T05:35:22.770Z,696.00
2018-06-22T05:36:22.643Z,804.00
2018-06-22T05:37:22.519Z,788.00
2018-06-22T05:38:22.396Z,720.00
2018-06-22T05:39:22.271Z,652.00
2018-06-22T05:40:22.150Z,592.00
2018-06-22T05:41:22.069Z,512.00
2018-06-22T05:42:21.900Z,480.00
2018-06-22T05:43:21.775Z,476.00
2018-06-22T05:44:21.656Z,476.00
2018-06-22T05:45:21.527Z,476.00
2018-06-22T05:46:21.405Z,496.00
2018-06-22T05:47:21.390Z,544.00
2018-06-22T05:48:21.155Z,532.00
2018-06-22T05:49:21.037Z,564.00
2018-06-22T05:50:20.905Z,632.00
2018-06-22T05:51:20.779Z,668.00
2018-06-22T05:52:20.655Z,636.00
2018-06-22T05:53:20.535Z,616.00
2018-06-22T05:54:20.407Z,620.00
2018-06-22T05:55:20.284Z,636.00
2018-06-22T05:56:20.160Z,820.00
2018-06-22T05:57:20.035Z,1056.00
2018-06-22T05:58:19.912Z,1080.00
2018-06-22T05:59:19.786Z,1032.00
2018-06-22T06:00:19.663Z,976.00
2018-06-22T06:01:19.538Z,1016.00
2018-06-22T06:02:19.411Z,1028.00
2018-06-22T06:03:19.288Z,908.00
2018-06-22T06:04:19.162Z,796.00
2018-06-22T06:05:19.042Z,684.00
2018-06-22T06:06:18.915Z,652.00
2018-06-22T06:07:18.793Z,624.00
2018-06-22T06:08:18.668Z,600.00
2018-06-22T06:09:18.543Z,556.00
2018-06-22T06:10:18.417Z,528.00
2018-06-22T06:11:18.314Z,552.00
2018-06-22T06:12:18.170Z,744.00
2018-06-22T06:13:18.051Z,896.00
2018-06-22T06:14:17.923Z,1072.00
2018-06-22T06:15:17.792Z,1368.00
2018-06-22T06:16:17.666Z,1804.00
2018-06-22T06:17:17.543Z,2012.00
2018-06-22T06:18:17.416Z,1596.00
2018-06-22T06:19:17.294Z,1536.00
2018-06-22T06:20:17.171Z,1716.00
2018-06-22T06:21:17.046Z,2004.00
2018-06-22T06:22:16.919Z,2132.00
2018-06-22T06:23:16.794Z,2172.00
2018-06-22T06:24:16.670Z,2400.00
2018-06-22T06:25:16.548Z,2700.00
2018-06-22T06:26:16.421Z,2476.00
2018-06-22T06:27:16.337Z,1820.00
2018-06-22T06:28:16.174Z,1520.00
2018-06-22T06:29:16.052Z,1540.00
2018-06-22T06:30:15.924Z,1488.00
2018-06-22T06:31:15.800Z,1464.00
2018-06-22T06:32:15.680Z,1448.00
2018-06-22T06:33:15.553Z,1568.00
2018-06-22T06:34:15.454Z,1700.00
2018-06-22T06:35:15.307Z,1924.00
2018-06-22T06:36:15.183Z,2152.00
2018-06-22T06:37:15.054Z,2284.00
2018-06-22T06:38:14.932Z,2200.00
2018-06-22T06:39:14.807Z,2088.00
2018-06-22T06:40:14.684Z,1880.00
2018-06-22T06:41:14.558Z,1712.00
2018-06-22T06:42:14.432Z,1664.00
2018-06-22T06:43:14.307Z,1724.00
2018-06-22T06:44:14.193Z,1676.00
2018-06-22T06:45:14.062Z,1720.00
2018-06-22T06:46:13.935Z,1772.00
2018-06-22T06:47:13.819Z,1784.00
2018-06-22T06:48:13.687Z,1936.00
2018-06-22T06:49:13.564Z,1984.00
2018-06-22T06:50:13.441Z,1948.00
2018-06-22T06:51:13.317Z,1944.00
2018-06-22T06:52:13.193Z,1876.00
2018-06-22T06:53:13.067Z,1864.00
2018-06-22T06:54:12.940Z,1896.00
2018-06-22T06:55:12.818Z,1888.00
2018-06-22T06:56:12.692Z,1844.00
2018-06-22T06:57:12.572Z,1764.00
2018-06-22T06:58:12.446Z,1624.00
2018-06-22T06:59:12.320Z,1464.00
2018-06-22T07:00:12.197Z,1524.00
2018-06-22T07:01:12.084Z,1268.00
2018-06-22T07:02:11.952Z,1044.00
2018-06-22T07:03:11.824Z,944.00
2018-06-22T07:04:11.699Z,1124.00
2018-06-22T07:05:11.574Z,1196.00
2018-06-22T07:06:11.451Z,1108.00
2018-06-22T07:07:11.327Z,1096.00
2018-06-22T07:08:11.204Z,1084.00
2018-06-22T07:09:11.079Z,1268.00
2018-06-22T07:10:10.953Z,1324.00
2018-06-22T07:11:10.832Z,1244.00
2018-06-22T07:12:10.708Z,1364.00
2018-06-22T07:13:10.585Z,1388.00
2018-06-22T07:14:10.457Z,1424.00
2018-06-22T07:15:10.337Z,1504.00
2018-06-22T07:16:10.211Z,1912.00
2018-06-22T07:17:10.116Z,1832.00
2018-06-22T07:18:09.968Z,1620.00
2018-06-22T07:19:09.840Z,1688.00
2018-06-22T07:20:09.718Z,1888.00
2018-06-22T07:21:09.595Z,2244.00
2018-06-22T07:22:09.464Z,2592.00
2018-06-22T07:23:09.339Z,2836.00
2018-06-22T07:24:09.219Z,3056.00
2018-06-22T07:25:09.096Z,3444.00
2018-06-22T07:26:08.970Z,3996.00
2018-06-22T07:27:08.845Z,4172.00
2018-06-22T07:28:08.721Z,3400.00
2018-06-22T07:29:08.597Z,2620.00
2018-06-22T07:30:08.471Z,2368.00
2018-06-22T07:31:08.349Z,2152.00
2018-06-22T07:32:08.223Z,1940.00
2018-06-22T07:33:08.101Z,2032.00
2018-06-22T07:34:07.977Z,2420.00
2018-06-22T07:35:07.850Z,3016.00
2018-06-22T07:36:07.731Z,3656.00
2018-06-22T07:37:07.612Z,3864.00
2018-06-22T07:38:07.480Z,3520.00
2018-06-22T07:39:07.358Z,3172.00
2018-06-22T07:40:07.230Z,3108.00
2018-06-22T07:41:07.147Z,3232.00
2018-06-22T07:42:06.982Z,3596.00
2018-06-22T07:43:06.860Z,4180.00
2018-06-22T07:44:06.736Z,4552.00
2018-06-22T07:45:06.616Z,4964.00
2018-06-22T07:46:06.490Z,5524.00
2018-06-22T07:47:06.367Z,5800.00
2018-06-22T07:48:06.241Z,5476.00
2018-06-22T07:49:06.120Z,5024.00
2018-06-22T07:50:05.995Z,4880.00
2018-06-22T07:51:05.871Z,5088.00
2018-06-22T07:52:05.748Z,5244.00
2018-06-22T07:53:05.626Z,5380.00
2018-06-22T07:54:05.502Z,5220.00
2018-06-22T07:55:05.396Z,5196.00
2018-06-22T07:56:05.257Z,5128.00
2018-06-22T07:57:05.136Z,5036.00
2018-06-22T07:58:05.013Z,5128.00
2018-06-22T07:59:04.885Z,5608.00
2018-06-22T08:00:04.769Z,6112.00
2018-06-22T08:01:04.643Z,5820.00
2018-06-22T08:02:04.520Z,5540.00
2018-06-22T08:03:04.395Z,5692.00
2018-06-22T08:04:04.273Z,5716.00
2018-06-22T08:05:04.153Z,5724.00
2018-06-22T08:06:04.027Z,5884.00
2018-06-22T08:07:03.906Z,6060.00
2018-06-22T08:08:03.782Z,6280.00
2018-06-22T08:09:03.672Z,6216.00
2018-06-22T08:10:03.538Z,5716.00
2018-06-22T08:11:03.415Z,5540.00
2018-06-22T08:12:03.289Z,5452.00
2018-06-22T08:13:03.169Z,5296.00
2018-06-22T08:14:03.045Z,4456.00
2018-06-22T08:15:02.924Z,3968.00
2018-06-22T08:16:02.800Z,3536.00
2018-06-22T08:17:02.678Z,3232.00
2018-06-22T08:18:02.554Z,3252.00
2018-06-22T08:19:02.431Z,3364.00
2018-06-22T08:20:02.309Z,3508.00
2018-06-22T08:21:02.192Z,3780.00
2018-06-22T08:22:02.068Z,4012.00
2018-06-22T08:23:01.943Z,4188.00
2018-06-22T08:24:01.822Z,4256.00
2018-06-22T08:25:01.702Z,4612.00
2018-06-22T08:26:01.575Z,4892.00
2018-06-22T08:27:01.452Z,4384.00
2018-06-22T08:28:01.333Z,4196.00
2018-06-22T08:29:01.212Z,4272.00
2018-06-22T08:30:01.084Z,4656.00
2018-06-22T08:31:00.964Z,4796.00
2018-06-22T08:32:00.839Z,4916.00
2018-06-22T08:33:00.719Z,4784.00
2018-06-22T08:34:00.594Z,4668.00
2018-06-22T08:35:00.508Z,4788.00
2018-06-22T08:36:00.349Z,5072.00
2018-06-22T08:37:00.228Z,5356.00
2018-06-22T08:38:00.108Z,5780.00
2018-06-22T08:38:59.987Z,6012.00
2018-06-22T08:39:59.885Z,6324.00
2018-06-22T08:40:59.740Z,6792.00
2018-06-22T08:41:59.766Z,6504.00
2018-06-22T08:42:59.499Z,5520.00
2018-06-22T08:43:59.373Z,5240.00
2018-06-22T08:44:59.253Z,5356.00
2018-06-22T08:45:59.129Z,5208.00
2018-06-22T08:46:59.009Z,5604.00
2018-06-22T08:47:58.886Z,6804.00
2018-06-22T08:48:58.839Z,6652.00
2018-06-22T08:49:58.642Z,6104.00
2018-06-22T08:50:58.524Z,6280.00
2018-06-22T08:51:58.400Z,6352.00
2018-06-22T08:52:58.278Z,6444.00
2018-06-22T08:53:58.157Z,6360.00
2018-06-22T08:54:58.035Z,5916.00
2018-06-22T08:55:57.920Z,5668.00
2018-06-22T08:56:57.794Z,5660.00
2018-06-22T08:57:57.676Z,5496.00
2018-06-22T08:58:57.551Z,5332.00
2018-06-22T08:59:57.432Z,4456.00
2018-06-22T09:00:57.311Z,3536.00
2018-06-22T09:01:57.187Z,4252.00
2018-06-22T09:02:57.067Z,4672.00
2018-06-22T09:03:56.949Z,6028.00
2018-06-22T09:04:56.825Z,6024.00
2018-06-22T09:05:56.702Z,5936.00
2018-06-22T09:06:56.585Z,6968.00
2018-06-22T09:07:56.462Z,7668.00
2018-06-22T09:08:56.343Z,6964.00
2018-06-22T09:09:56.217Z,5400.00
2018-06-22T09:10:56.101Z,6000.00
2018-06-22T09:11:55.979Z,6336.00
2018-06-22T09:12:55.859Z,5952.00
2018-06-22T09:13:55.742Z,4432.00
2018-06-22T09:14:55.624Z,4312.00
2018-06-22T09:15:55.499Z,4040.00
2018-06-22T09:16:55.375Z,4016.00
2018-06-22T09:17:55.252Z,3500.00
2018-06-22T09:18:55.133Z,3220.00
2018-06-22T09:19:55.015Z,3480.00
2018-06-22T09:20:54.892Z,3764.00
2018-06-22T09:21:54.773Z,3868.00
2018-06-22T09:22:54.649Z,3900.00
2018-06-22T09:23:54.534Z,4136.00
2018-06-22T09:24:54.412Z,3364.00
2018-06-22T09:25:54.291Z,2900.00
2018-06-22T09:26:54.167Z,2876.00
2018-06-22T09:27:54.053Z,2836.00
2018-06-22T09:28:53.927Z,2736.00
2018-06-22T09:29:53.807Z,3284.00
2018-06-22T09:30:53.685Z,4512.00
2018-06-22T09:31:53.565Z,5064.00
2018-06-22T09:32:53.447Z,5584.00
2018-06-22T09:33:53.324Z,5224.00
2018-06-22T09:34:53.202Z,5692.00
2018-06-22T09:35:53.081Z,5524.00
2018-06-22T09:36:53.035Z,4668.00
2018-06-22T09:37:52.835Z,4216.00
2018-06-22T09:38:52.717Z,3284.00
2018-06-22T09:39:52.597Z,3708.00
2018-06-22T09:40:52.475Z,4748.00
2018-06-22T09:41:52.352Z,4824.00
2018-06-22T09:42:52.300Z,5188.00
2018-06-22T09:43:52.114Z,5976.00
2018-06-22T09:44:51.991Z,6108.00
2018-06-22T09:45:51.872Z,5760.00
2018-06-22T09:46:51.747Z,4920.00
2018-06-22T09:47:51.629Z,4856.00
2018-06-22T09:48:51.510Z,5356.00
2018-06-22T09:49:51.388Z,5468.00
2018-06-22T09:50:51.265Z,4796.00
2018-06-22T09:51:51.143Z,5696.00
2018-06-22T09:52:51.026Z,5856.00
2018-06-22T09:53:50.903Z,5744.00
2018-06-22T09:54:50.782Z,5492.00
2018-06-22T09:55:50.662Z,4244.00
2018-06-22T09:56:50.538Z,3180.00
2018-06-22T09:57:50.418Z,3376.00
2018-06-22T09:58:50.296Z,4992.00
2018-06-22T09:59:50.177Z,5848.00
2018-06-22T10:00:50.056Z,5304.00
2018-06-22T10:01:49.939Z,6432.00
2018-06-22T10:02:49.812Z,5308.00
2018-06-22T10:03:49.692Z,4204.00
2018-06-22T10:04:49.609Z,4280.00
2018-06-22T10:05:49.510Z,5448.00
2018-06-22T10:06:49.331Z,5384.00
2018-06-22T10:07:49.208Z,5736.00
2018-06-22T10:08:49.089Z,5624.00
2018-06-22T10:09:48.970Z,5480.00
2018-06-22T10:10:48.851Z,4576.00
2018-06-22T10:11:48.731Z,3264.00
2018-06-22T10:12:48.609Z,2900.00
2018-06-22T10:13:48.489Z,2684.00
2018-06-22T10:14:48.369Z,2304.00
2018-06-22T10:15:48.248Z,2612.00
2018-06-22T10:16:48.130Z,4056.00
2018-06-22T10:17:48.009Z,3960.00
2018-06-22T10:18:47.888Z,4032.00
2018-06-22T10:19:47.770Z,3460.00
2018-06-22T10:20:47.651Z,3852.00
2018-06-22T10:21:47.535Z,4780.00
2018-06-22T10:22:47.411Z,4824.00
2018-06-22T10:23:47.290Z,5540.00
2018-06-22T10:24:47.174Z,4848.00
2018-06-22T10:25:47.052Z,5888.00
2018-06-22T10:26:46.932Z,6220.00
2018-06-22T10:27:47.764Z,6292.00
2018-06-22T10:28:46.692Z,5848.00
2018-06-22T10:29:46.570Z,5624.00
2018-06-22T10:30:46.456Z,5540.00
2018-06-22T10:31:46.329Z,6428.00
2018-06-22T10:32:46.212Z,7064.00
2018-06-22T10:33:46.091Z,6796.00
2018-06-22T10:34:45.972Z,5844.00
2018-06-22T10:35:45.851Z,4560.00
2018-06-22T10:36:45.735Z,5528.00
2018-06-22T10:37:45.611Z,5860.00
2018-06-22T10:38:45.494Z,6156.00
2018-06-22T10:39:45.376Z,5744.00
2018-06-22T10:40:45.257Z,3760.00
2018-06-22T10:41:45.135Z,3280.00
2018-06-22T10:42:45.020Z,3376.00
2018-06-22T10:43:44.898Z,4664.00
2018-06-22T10:44:44.780Z,5688.00
2018-06-22T10:45:44.698Z,4536.00
2018-06-22T10:46:44.542Z,3848.00
2018-06-22T10:47:44.421Z,3212.00
2018-06-22T10:48:44.305Z,3488.00
2018-06-22T10:49:44.184Z,3644.00
2018-06-22T10:50:44.068Z,4048.00
2018-06-22T10:51:43.948Z,4908.00
2018-06-22T10:52:43.833Z,5324.00
2018-06-22T10:53:43.708Z,4820.00
2018-06-22T10:54:43.589Z,4588.00
2018-06-22T10:55:43.476Z,4668.00
2018-06-22T10:56:43.349Z,5000.00
2018-06-22T10:57:43.233Z,5728.00
2018-06-22T10:58:43.110Z,5724.00
2018-06-22T10:59:43.073Z,7036.00
2018-06-22T11:00:42.872Z,5820.00
2018-06-22T11:01:42.750Z,5108.00
2018-06-22T11:02:42.631Z,5720.00
2018-06-22T11:03:42.511Z,4332.00
2018-06-22T11:04:42.394Z,4236.00
2018-06-22T11:05:42.311Z,3832.00
2018-06-22T11:06:42.151Z,4948.00
2018-06-22T11:07:42.034Z,6340.00
2018-06-22T11:08:41.918Z,6496.00
2018-06-22T11:09:41.792Z,5100.00
2018-06-22T11:10:41.673Z,4788.00
2018-06-22T11:11:41.558Z,5672.00
2018-06-22T11:12:41.435Z,5124.00
2018-06-22T11:13:41.319Z,5700.00
2018-06-22T11:14:41.195Z,6472.00
2018-06-22T11:15:41.081Z,5268.00
2018-06-22T11:16:40.991Z,5324.00
2018-06-22T11:17:40.836Z,4732.00
2018-06-22T11:18:40.718Z,5692.00
2018-06-22T11:19:40.599Z,6256.00
2018-06-22T11:20:40.476Z,5724.00
2018-06-22T11:21:40.358Z,5088.00
2018-06-22T11:22:40.239Z,5088.00
2018-06-22T11:23:40.120Z,5840.00
2018-06-22T11:24:40.040Z,6356.00
2018-06-22T11:25:39.880Z,5180.00
2018-06-22T11:26:39.761Z,6368.00
2018-06-22T11:27:39.647Z,7204.00
2018-06-22T11:28:39.522Z,7848.00
2018-06-22T11:29:39.401Z,7520.00
2018-06-22T11:30:39.285Z,6980.00
2018-06-22T11:31:39.164Z,6160.00
2018-06-22T11:32:39.043Z,5080.00
2018-06-22T11:33:38.927Z,4004.00
2018-06-22T11:34:38.805Z,4320.00
2018-06-22T11:35:38.698Z,4152.00
2018-06-22T11:36:38.567Z,3660.00
2018-06-22T11:37:38.448Z,3952.00
2018-06-22T11:38:38.327Z,3892.00
2018-06-22T11:39:38.211Z,4720.00
2018-06-22T11:40:38.091Z,4716.00
2018-06-22T11:41:37.968Z,5980.00
2018-06-22T11:42:37.850Z,6960.00
2018-06-22T11:43:37.739Z,8348.00
2018-06-22T11:44:37.611Z,6912.00
2018-06-22T11:45:37.492Z,7916.00
2018-06-22T11:46:37.374Z,8232.00
2018-06-22T11:47:37.255Z,9644.00
2018-06-22T11:48:37.134Z,7064.00
2018-06-22T11:49:37.017Z,6864.00
2018-06-22T11:50:36.897Z,7188.00
2018-06-22T11:51:36.783Z,6620.00
2018-06-22T11:52:36.660Z,6488.00
2018-06-22T11:53:36.541Z,8572.00
2018-06-22T11:54:36.424Z,9164.00
2018-06-22T11:55:36.304Z,7056.00
2018-06-22T11:56:36.184Z,5860.00
2018-06-22T11:57:36.066Z,4924.00
2018-06-22T11:58:35.946Z,5376.00
2018-06-22T11:59:35.830Z,6320.00
2018-06-22T12:00:35.709Z,7320.00
2018-06-22T12:01:35.630Z,8608.00
2018-06-22T12:02:35.472Z,8828.00
2018-06-22T12:03:35.352Z,6292.00
2018-06-22T12:04:35.272Z,4784.00
2018-06-22T12:05:35.112Z,4716.00
2018-06-22T12:06:34.998Z,5188.00
2018-06-22T12:07:34.877Z,6548.00
2018-06-22T12:08:34.757Z,6916.00
2018-06-22T12:09:34.638Z,4984.00
2018-06-22T12:10:34.519Z,4124.00
2018-06-22T12:11:34.403Z,4424.00
2018-06-22T12:12:34.281Z,4088.00
2018-06-22T12:13:34.167Z,4156.00
2018-06-22T12:14:34.044Z,4752.00
2018-06-22T12:15:33.920Z,5204.00
2018-06-22T12:16:33.802Z,5312.00
2018-06-22T12:17:33.685Z,5300.00
2018-06-22T12:18:33.565Z,6048.00
2018-06-22T12:19:33.446Z,6328.00
2018-06-22T12:20:33.324Z,6232.00
2018-06-22T12:21:33.204Z,5340.00
2018-06-22T12:22:33.091Z,4900.00
2018-06-22T12:23:32.963Z,4508.00
2018-06-22T12:24:32.844Z,4056.00
2018-06-22T12:25:32.725Z,5476.00
2018-06-22T12:26:32.605Z,8572.00
2018-06-22T12:27:32.518Z,8324.00
2018-06-22T12:28:32.365Z,9820.00
2018-06-22T12:29:32.245Z,6840.00